createdAt,value
2023-01-10T00:01:04.248Z,70.79
2023-01-10T00:04:08.346Z,71.66
2023-01-10T00:07:12.359Z,72.40
2023-01-10T00:10:16.530Z,72.35
2023-01-10T00:13:20.271Z,69.60
2023-01-10T00:16:24.503Z,68.66
2023-01-10T00:19:28.222Z,66.74
2023-01-10T00:22:32.180Z,71.16
2023-01-10T00:25:35.942Z,70.49
2023-01-10T00:28:39.846Z,70.16
2023-01-10T00:31:43.955Z,70.02
2023-01-10T00:34:47.962Z,70.50
2023-01-10T00:37:51.872Z,70.12
2023-01-10T00:44:17.581Z,69.62
2023-01-10T00:47:21.715Z,71.33
2023-01-10T00:50:25.703Z,71.11
2023-01-10T00:53:29.686Z,68.88
2023-01-10T00:56:33.578Z,67.85
2023-01-10T00:59:37.530Z,69.81
2023-01-10T01:02:41.689Z,69.20
2023-01-10T01:05:45.873Z,72.27
2023-01-10T01:08:49.554Z,67.62
2023-01-10T01:11:53.591Z,66.26
2023-01-10T01:14:57.967Z,71.78
2023-01-10T01:18:02.076Z,68.99
2023-01-10T01:21:05.900Z,71.02
2023-01-10T01:24:10.060Z,71.44
2023-01-10T01:27:13.819Z,70.12
2023-01-10T01:30:17.911Z,72.04
2023-01-10T01:33:21.952Z,71.29
2023-01-10T01:36:25.893Z,73.21
2023-01-10T01:39:29.813Z,71.14
2023-01-10T01:42:33.980Z,73.28
2023-01-10T01:45:38.031Z,73.70
2023-01-10T01:48:42.069Z,71.45
2023-01-10T01:51:45.962Z,70.81
2023-01-10T01:54:50.035Z,71.10
2023-01-10T01:57:54.308Z,70.69
2023-01-10T02:00:58.024Z,69.86
2023-01-10T02:04:01.939Z,70.46
2023-01-10T02:07:05.846Z,68.88
2023-01-10T02:10:09.758Z,67.77
2023-01-10T02:13:13.825Z,68.17
2023-01-10T02:16:18.019Z,69.03
2023-01-10T02:19:21.788Z,67.77
2023-01-10T02:22:25.601Z,70.28
2023-01-10T02:25:29.531Z,67.49
2023-01-10T02:28:33.390Z,69.06
2023-01-10T02:31:37.174Z,70.77
2023-01-10T02:34:41.253Z,70.80
2023-01-10T02:37:45.120Z,69.71
2023-01-10T02:40:49.250Z,69.47
2023-01-10T02:43:53.184Z,69.72
2023-01-10T02:46:57.218Z,70.48
2023-01-10T02:50:01.074Z,69.19
2023-01-10T02:53:05.264Z,69.04
2023-01-10T02:56:09.149Z,70.92
2023-01-10T02:59:13.215Z,71.50
2023-01-10T03:02:17.429Z,72.56
2023-01-10T03:05:21.951Z,71.88
2023-01-10T03:08:26.075Z,71.47
2023-01-10T03:11:29.864Z,71.28
2023-01-10T03:14:33.674Z,71.62
2023-01-10T03:17:37.619Z,72.00
2023-01-10T03:20:41.650Z,70.69
2023-01-10T03:23:45.561Z,68.96
2023-01-10T03:26:49.625Z,68.23
2023-01-10T03:29:53.534Z,68.92
2023-01-10T03:32:57.528Z,69.21
2023-01-10T03:36:02.029Z,69.11
2023-01-10T03:39:05.859Z,69.15
2023-01-10T03:42:09.628Z,70.14
2023-01-10T03:45:13.557Z,69.85
2023-01-10T03:48:17.638Z,70.00
2023-01-10T03:51:21.619Z,69.11
2023-01-10T03:54:25.462Z,67.48
2023-01-10T03:57:29.499Z,67.55
2023-01-10T04:00:33.728Z,67.85
2023-01-10T04:03:37.559Z,68.22
2023-01-10T04:06:41.407Z,68.37
2023-01-10T04:09:45.453Z,67.83
2023-01-10T04:12:49.402Z,70.57
2023-01-10T04:15:53.445Z,70.49
2023-01-10T04:18:57.339Z,68.79
2023-01-10T04:22:01.175Z,69.33
2023-01-10T04:25:05.036Z,69.76
2023-01-10T04:28:09.080Z,70.67
2023-01-10T04:31:13.226Z,66.42
2023-01-10T04:34:16.994Z,66.62
2023-01-10T04:37:20.969Z,68.27
2023-01-10T04:40:24.958Z,68.30
2023-01-10T04:43:29.062Z,66.28
2023-01-10T04:46:33.020Z,67.10
2023-01-10T04:49:38.928Z,67.37
2023-01-10T04:52:42.693Z,67.38
2023-01-10T04:55:46.699Z,68.16
2023-01-10T04:58:53.057Z,67.35
2023-01-10T05:01:57.777Z,68.54
2023-01-10T05:05:01.537Z,66.94
2023-01-10T05:08:05.248Z,68.50
2023-01-10T05:11:09.363Z,68.89
2023-01-10T05:14:13.506Z,69.67
2023-01-10T05:17:17.461Z,68.14
2023-01-10T05:20:21.312Z,70.48
2023-01-10T05:23:25.394Z,71.96
2023-01-10T05:26:29.477Z,72.65
2023-01-10T05:29:33.794Z,73.37
2023-01-10T05:32:37.511Z,71.75
2023-01-10T05:35:41.389Z,70.66
2023-01-10T05:38:45.533Z,71.55
2023-01-10T05:41:49.607Z,70.45
2023-01-10T05:44:53.721Z,69.63
2023-01-10T05:47:57.672Z,69.98
2023-01-10T05:51:01.750Z,69.86
2023-01-10T05:54:05.774Z,69.45
2023-01-10T05:57:09.880Z,69.14
2023-01-10T06:00:13.800Z,68.20
2023-01-10T06:03:17.819Z,68.13
2023-01-10T06:06:21.784Z,67.80
2023-01-10T06:09:25.702Z,69.33
2023-01-10T06:12:29.815Z,66.97
2023-01-10T06:15:33.838Z,67.33
2023-01-10T06:18:39.118Z,68.39
2023-01-10T06:21:43.039Z,70.30
2023-01-10T06:24:47.118Z,70.68
2023-01-10T06:27:50.994Z,71.37
2023-01-10T06:30:54.976Z,71.64
2023-01-10T06:33:59.114Z,71.45
2023-01-10T06:37:03.097Z,71.56
2023-01-10T06:40:07.007Z,71.46
2023-01-10T06:43:10.903Z,71.89
2023-01-10T06:46:14.844Z,71.10
2023-01-10T06:49:18.905Z,70.61
2023-01-10T06:52:23.135Z,70.94
2023-01-10T06:55:27.083Z,70.37
2023-01-10T06:58:30.983Z,71.41
2023-01-10T07:01:35.240Z,71.27
2023-01-10T07:04:39.657Z,70.61
2023-01-10T07:07:43.709Z,70.43
2023-01-10T07:10:47.969Z,70.45
2023-01-10T07:13:52.057Z,71.58
2023-01-10T07:16:56.379Z,70.66
2023-01-10T07:20:00.750Z,69.35
2023-01-10T07:23:04.738Z,69.33
2023-01-10T07:26:08.781Z,68.91
2023-01-10T07:29:12.860Z,68.37
2023-01-10T07:32:17.134Z,69.37
2023-01-10T07:35:21.391Z,69.64
2023-01-10T07:38:25.330Z,70.16
2023-01-10T07:41:29.167Z,68.67
2023-01-10T07:44:33.438Z,66.90
2023-01-10T07:47:37.961Z,66.70
2023-01-10T07:50:42.195Z,66.67
2023-01-10T07:53:46.181Z,67.20
2023-01-10T07:56:50.209Z,66.99
2023-01-10T07:59:53.877Z,65.86
2023-01-10T08:02:58.324Z,66.47
2023-01-10T08:06:02.330Z,66.69
2023-01-10T08:09:06.154Z,66.50
2023-01-10T08:12:10.291Z,65.82
2023-01-10T08:15:14.510Z,65.97
2023-01-10T08:18:18.291Z,65.54
2023-01-10T08:21:22.178Z,65.41
2023-01-10T08:24:26.121Z,66.81
2023-01-10T08:27:30.225Z,66.51
2023-01-10T08:30:35.159Z,67.48
2023-01-10T08:33:39.068Z,65.42
2023-01-10T08:36:42.788Z,66.08
2023-01-10T08:39:46.971Z,65.60
2023-01-10T08:42:51.143Z,65.25
2023-01-10T08:45:55.037Z,63.35
2023-01-10T08:48:58.962Z,62.96
2023-01-10T08:52:03.143Z,62.72
2023-01-10T08:55:07.276Z,63.28
2023-01-10T08:58:11.854Z,63.52
2023-01-10T09:01:15.765Z,65.00
2023-01-10T09:04:19.558Z,63.72
2023-01-10T09:07:23.594Z,63.92
2023-01-10T09:10:27.894Z,66.10
2023-01-10T09:13:32.174Z,66.67
2023-01-10T09:16:36.254Z,67.03
2023-01-10T09:19:40.226Z,67.13
2023-01-10T09:22:44.455Z,66.45
2023-01-10T09:25:48.827Z,65.77
2023-01-10T09:28:53.017Z,65.80
2023-01-10T09:31:57.223Z,65.45
2023-01-10T09:35:01.351Z,64.90
2023-01-10T09:38:05.156Z,63.89
2023-01-10T09:41:09.193Z,65.18
2023-01-10T09:44:12.952Z,64.09
2023-01-10T09:47:22.478Z,64.36
2023-01-10T09:50:27.155Z,65.53
2023-01-10T09:53:30.984Z,65.20
2023-01-10T09:56:34.899Z,64.12
2023-01-10T09:59:39.108Z,64.22
2023-01-10T10:02:43.431Z,62.85
2023-01-10T10:05:47.543Z,63.52
2023-01-10T10:08:51.460Z,62.54
2023-01-10T10:11:55.463Z,63.92
2023-01-10T10:14:59.729Z,63.49
2023-01-10T10:18:04.069Z,64.24
2023-01-10T10:21:08.189Z,63.88
2023-01-10T10:24:12.259Z,63.00
2023-01-10T10:27:16.377Z,63.47
2023-01-10T10:30:20.056Z,62.43
2023-01-10T10:33:24.197Z,61.52
2023-01-10T10:36:27.838Z,63.00
2023-01-10T10:39:31.662Z,60.97
2023-01-10T10:42:35.879Z,60.72
2023-01-10T10:45:40.131Z,64.86
2023-01-10T10:48:43.823Z,60.45
2023-01-10T10:51:47.899Z,60.24
2023-01-10T10:54:52.091Z,58.56
2023-01-10T10:58:00.380Z,59.48
2023-01-10T11:01:05.091Z,58.80
2023-01-10T11:04:09.167Z,58.86
2023-01-10T11:07:13.098Z,61.70
2023-01-10T11:10:17.023Z,58.45
2023-01-10T11:13:21.291Z,58.88
2023-01-10T11:16:25.621Z,59.19
2023-01-10T11:19:29.709Z,58.73
2023-01-10T11:22:33.709Z,59.10
2023-01-10T11:25:37.893Z,58.08
2023-01-10T11:28:42.334Z,57.52
2023-01-10T11:31:46.149Z,58.38
2023-01-10T11:34:50.046Z,57.97
2023-01-10T11:37:53.820Z,57.26
2023-01-10T11:40:58.211Z,58.16
2023-01-10T11:44:02.394Z,58.03
2023-01-10T11:47:06.562Z,56.93
2023-01-10T11:50:10.317Z,56.76
2023-01-10T11:53:14.409Z,57.84
2023-01-10T11:56:18.256Z,58.04
2023-01-10T11:59:22.214Z,56.94
2023-01-10T12:02:26.084Z,58.24
2023-01-10T12:05:30.068Z,57.11
2023-01-10T12:08:33.889Z,56.00
2023-01-10T12:11:38.372Z,54.95
2023-01-10T12:14:42.224Z,54.21
2023-01-10T12:17:46.240Z,56.63
2023-01-10T12:20:50.130Z,54.89
2023-01-10T12:23:53.954Z,55.06
2023-01-10T12:26:58.137Z,55.20
2023-01-10T12:30:01.964Z,55.41
2023-01-10T12:33:05.961Z,56.28
2023-01-10T12:36:10.139Z,54.99
2023-01-10T12:39:14.440Z,54.74
2023-01-10T12:42:21.883Z,53.77
2023-01-10T12:45:27.922Z,53.10
2023-01-10T12:48:32.100Z,54.63
2023-01-10T12:51:35.834Z,55.75
2023-01-10T12:54:39.723Z,51.93
2023-01-10T12:57:43.675Z,52.70
2023-01-10T13:00:48.837Z,52.88
2023-01-10T13:03:53.150Z,52.08
2023-01-10T13:06:56.842Z,51.28
2023-01-10T13:10:00.722Z,51.20
2023-01-10T13:13:04.878Z,50.97
2023-01-10T13:16:08.945Z,53.11
2023-01-10T13:19:12.924Z,51.38
2023-01-10T13:22:17.457Z,50.55
2023-01-10T13:25:21.431Z,50.04
2023-01-10T13:28:25.085Z,50.66
2023-01-10T13:31:29.135Z,51.83
2023-01-10T13:34:33.824Z,52.32
2023-01-10T13:37:39.232Z,51.79
2023-01-10T13:40:43.570Z,53.94
2023-01-10T13:43:50.001Z,51.45
2023-01-10T13:46:54.220Z,51.01
2023-01-10T13:49:57.957Z,51.27
2023-01-10T13:53:02.025Z,49.56
2023-01-10T13:56:06.209Z,48.14
2023-01-10T13:59:10.260Z,47.98
2023-01-10T14:02:14.246Z,48.49
2023-01-10T14:05:18.652Z,49.02
2023-01-10T14:08:22.620Z,49.12
2023-01-10T14:11:26.884Z,47.96
2023-01-10T14:14:31.239Z,50.68
2023-01-10T14:17:35.058Z,48.75
2023-01-10T14:20:39.331Z,48.74
2023-01-10T14:23:43.325Z,50.58
2023-01-10T14:26:47.123Z,49.64
2023-01-10T14:29:51.213Z,49.41
2023-01-10T14:32:57.706Z,52.38
2023-01-10T14:36:01.873Z,54.64
2023-01-10T14:39:05.870Z,56.88
2023-01-10T14:42:10.001Z,54.27
2023-01-10T14:45:13.975Z,55.75
2023-01-10T14:48:17.808Z,53.97
2023-01-10T14:51:21.606Z,55.17
2023-01-10T14:54:25.655Z,54.72
2023-01-10T14:57:29.653Z,54.60
2023-01-10T15:00:33.522Z,54.65
2023-01-10T15:03:37.208Z,55.78
2023-01-10T15:06:42.550Z,53.27
2023-01-10T15:09:46.591Z,54.21
2023-01-10T15:12:50.470Z,53.08
2023-01-10T15:15:54.237Z,54.52
2023-01-10T15:18:58.039Z,55.03
2023-01-10T15:22:01.969Z,55.01
2023-01-10T15:25:06.121Z,54.93
2023-01-10T15:28:10.039Z,54.09
2023-01-10T15:31:13.957Z,54.51
2023-01-10T15:34:17.818Z,53.33
2023-01-10T15:37:21.688Z,55.21
2023-01-10T15:40:25.528Z,55.82
2023-01-10T15:43:29.343Z,53.99
2023-01-10T15:46:33.204Z,55.44
2023-01-10T15:49:37.308Z,54.81
2023-01-10T15:52:41.322Z,55.00
2023-01-10T15:55:45.086Z,55.45
2023-01-10T15:58:48.769Z,54.92
2023-01-10T16:01:52.728Z,54.79
2023-01-10T16:04:57.365Z,55.46
2023-01-10T16:08:01.287Z,54.24
2023-01-10T16:11:04.945Z,54.57
2023-01-10T16:14:08.746Z,54.24
2023-01-10T16:17:12.654Z,54.88
2023-01-10T16:20:16.461Z,54.46
2023-01-10T16:23:20.485Z,55.00
2023-01-10T16:26:24.257Z,54.15
2023-01-10T16:29:28.065Z,53.16
2023-01-10T16:32:32.577Z,54.07
2023-01-10T16:35:36.534Z,54.32
2023-01-10T16:38:40.802Z,55.41
2023-01-10T16:41:47.234Z,54.82
2023-01-10T16:44:51.210Z,55.20
2023-01-10T16:47:55.185Z,56.58
2023-01-10T16:51:00.238Z,55.93
2023-01-10T16:57:25.950Z,55.24
2023-01-10T17:00:30.020Z,56.01
2023-01-10T17:03:33.832Z,56.34
2023-01-10T17:06:37.988Z,55.93
2023-01-10T17:09:41.655Z,56.33
2023-01-10T17:12:45.448Z,56.40
2023-01-10T17:15:49.587Z,56.74
2023-01-10T17:18:54.941Z,55.48
2023-01-10T17:21:59.364Z,54.71
2023-01-10T17:25:04.039Z,54.10
2023-01-10T17:28:07.977Z,56.41
2023-01-10T17:31:12.550Z,55.59
2023-01-10T17:34:16.239Z,54.42
2023-01-10T17:37:20.145Z,55.89
2023-01-10T17:40:24.219Z,56.02
2023-01-10T17:43:28.217Z,55.39
2023-01-10T17:46:32.432Z,55.25
2023-01-10T17:49:38.428Z,55.62
2023-01-10T17:52:42.750Z,56.14
2023-01-10T17:55:49.669Z,55.97
2023-01-10T17:58:53.762Z,57.15
2023-01-10T18:01:57.798Z,56.99
2023-01-10T18:05:01.951Z,55.23
2023-01-10T18:08:05.921Z,56.55
2023-01-10T18:11:09.690Z,57.42
2023-01-10T18:14:15.508Z,57.70
2023-01-10T18:17:19.519Z,57.30
2023-01-10T18:20:24.186Z,57.03
2023-01-10T18:23:28.098Z,57.08
2023-01-10T18:26:33.899Z,57.74
2023-01-10T18:29:37.759Z,57.87
2023-01-10T18:32:41.641Z,56.66
2023-01-10T18:35:47.396Z,57.33
2023-01-10T18:38:51.917Z,56.21
2023-01-10T18:41:55.914Z,55.98
2023-01-10T18:45:00.066Z,55.67
2023-01-10T18:48:04.006Z,56.60
2023-01-10T18:51:08.121Z,57.00
2023-01-10T18:54:12.038Z,57.70
2023-01-10T18:57:15.969Z,57.87
2023-01-10T19:00:20.030Z,57.97
2023-01-10T19:03:24.089Z,56.93
2023-01-10T19:06:28.127Z,57.66
2023-01-10T19:09:32.093Z,56.83
2023-01-10T19:12:35.831Z,57.30
2023-01-10T19:15:39.731Z,55.55
2023-01-10T19:18:43.775Z,57.08
2023-01-10T19:21:47.867Z,56.81
2023-01-10T19:24:51.927Z,56.57
2023-01-10T19:27:56.206Z,56.54
2023-01-10T19:31:04.556Z,57.02
2023-01-10T19:34:09.063Z,57.25
2023-01-10T19:37:13.116Z,57.40
2023-01-10T19:40:17.443Z,56.71
2023-01-10T19:43:21.414Z,55.22
2023-01-10T19:46:25.272Z,56.70
2023-01-10T19:49:29.117Z,57.69
2023-01-10T19:52:33.409Z,57.42
2023-01-10T19:55:37.051Z,57.75
2023-01-10T19:58:40.884Z,56.70
2023-01-10T20:01:44.786Z,58.54
2023-01-10T20:04:48.870Z,57.23
2023-01-10T20:07:52.873Z,55.95
2023-01-10T20:10:57.272Z,57.34
2023-01-10T20:14:01.130Z,57.95
2023-01-10T20:17:05.137Z,55.65
2023-01-10T20:20:09.388Z,54.52
2023-01-10T20:23:13.477Z,56.18
2023-01-10T20:26:17.381Z,55.00
2023-01-10T20:29:21.504Z,53.59
2023-01-10T20:32:25.690Z,54.69
2023-01-10T20:35:30.863Z,55.64
2023-01-10T20:38:35.225Z,55.27
2023-01-10T20:41:39.194Z,55.72
2023-01-10T20:44:43.172Z,56.53
2023-01-10T20:47:47.192Z,56.17
2023-01-10T20:50:51.490Z,55.79
2023-01-10T20:53:55.465Z,54.39
2023-01-10T20:56:59.353Z,55.07
2023-01-10T21:00:03.579Z,55.20
2023-01-10T21:03:07.932Z,54.33
2023-01-10T21:06:11.646Z,55.83
2023-01-10T21:09:15.716Z,55.09
2023-01-10T21:12:23.471Z,53.23
2023-01-10T21:15:28.232Z,55.16
2023-01-10T21:18:32.085Z,53.49
2023-01-10T21:21:36.054Z,54.78
2023-01-10T21:24:40.296Z,53.77
2023-01-10T21:27:44.131Z,54.29
2023-01-10T21:30:48.060Z,53.75
2023-01-10T21:33:52.084Z,54.47
2023-01-10T21:36:56.341Z,55.31
2023-01-10T21:40:00.468Z,55.00
2023-01-10T21:43:04.407Z,56.68
2023-01-10T21:46:08.524Z,55.83
2023-01-10T21:49:12.895Z,56.94
2023-01-10T21:52:16.918Z,57.07
2023-01-10T21:55:20.900Z,56.61
2023-01-10T21:58:24.924Z,57.33
2023-01-10T22:01:28.914Z,57.22
2023-01-10T22:04:33.469Z,55.11
2023-01-10T22:07:37.364Z,56.33
2023-01-10T22:10:41.370Z,57.22
2023-01-10T22:13:45.613Z,57.86
2023-01-10T22:16:49.603Z,55.78
2023-01-10T22:19:53.844Z,54.46
2023-01-10T22:23:00.742Z,57.29
2023-01-10T22:26:04.560Z,57.42
2023-01-10T22:29:08.756Z,57.45
2023-01-10T22:32:13.432Z,57.34
2023-01-10T22:35:17.300Z,56.61
2023-01-10T22:38:21.594Z,58.07
2023-01-10T22:41:25.372Z,58.04
2023-01-10T22:44:29.261Z,59.86
2023-01-10T22:47:34.318Z,57.12
2023-01-10T22:50:38.553Z,58.92
2023-01-10T22:53:42.569Z,56.46
2023-01-10T22:56:46.575Z,58.07
2023-01-10T23:00:03.291Z,54.47
2023-01-10T23:03:07.107Z,54.78
2023-01-10T23:06:10.978Z,56.10
2023-01-10T23:09:15.189Z,54.55
2023-01-10T23:12:19.272Z,54.00
2023-01-10T23:15:23.288Z,55.63
2023-01-10T23:18:27.389Z,54.63
2023-01-10T23:21:31.453Z,53.98
2023-01-10T23:24:35.616Z,55.21
2023-01-10T23:27:39.498Z,54.60
2023-01-10T23:30:43.679Z,56.10
2023-01-10T23:33:47.592Z,55.67
2023-01-10T23:36:53.576Z,55.33
2023-01-10T23:39:57.494Z,54.36
2023-01-10T23:43:01.703Z,55.20
2023-01-10T23:46:06.059Z,55.37
2023-01-10T23:49:10.023Z,56.56
2023-01-10T23:52:13.957Z,56.71
2023-01-10T23:55:18.046Z,55.71
2023-01-10T23:58:21.937Z,56.21
